createdAt,value
2022-08-05T00:02:59.402Z,61.25
2022-08-05T00:06:27.775Z,61.00
2022-08-05T00:09:31.770Z,61.45
2022-08-05T00:12:56.396Z,61.21
2022-08-05T00:16:03.171Z,61.22
2022-08-05T00:19:11.002Z,61.44
2022-08-05T00:22:15.466Z,61.91
2022-08-05T00:25:24.291Z,61.67
2022-08-05T00:28:30.447Z,61.70
2022-08-05T00:31:54.457Z,61.68
2022-08-05T00:35:07.521Z,61.89
2022-08-05T00:38:14.756Z,61.83
2022-08-05T00:41:51.739Z,61.79
2022-08-05T00:44:57.260Z,61.76
2022-08-05T00:48:05.397Z,61.78
2022-08-05T00:51:12.439Z,61.82
2022-08-05T00:54:38.567Z,61.77
2022-08-05T00:57:58.781Z,61.56
2022-08-05T01:01:08.904Z,61.55
2022-08-05T01:04:16.136Z,61.50
2022-08-05T01:07:31.603Z,61.86
2022-08-05T01:10:51.531Z,61.73
2022-08-05T01:14:08.540Z,61.73
2022-08-05T01:17:21.707Z,61.89
2022-08-05T01:20:36.065Z,61.78
2022-08-05T01:24:03.430Z,61.75
2022-08-05T01:27:35.281Z,62.02
2022-08-05T01:31:03.268Z,62.13
2022-08-05T01:34:13.735Z,62.17
2022-08-05T01:37:26.127Z,62.45
2022-08-05T01:40:34.202Z,62.42
2022-08-05T01:43:41.410Z,62.13
2022-08-05T01:46:50.189Z,62.55
2022-08-05T01:50:03.027Z,63.11
2022-08-05T01:53:17.027Z,62.83
2022-08-05T01:58:12.974Z,62.67
2022-08-05T02:00:12.898Z,62.67
2022-08-05T02:03:29.053Z,62.73
2022-08-05T02:06:40.682Z,63.63
2022-08-05T02:09:51.730Z,63.64
2022-08-05T02:13:02.985Z,63.22
2022-08-05T02:16:25.802Z,63.04
2022-08-05T02:19:41.405Z,62.68
2022-08-05T02:22:59.675Z,62.35
2022-08-05T02:26:09.353Z,62.24
2022-08-05T02:29:24.250Z,62.25
2022-08-05T02:32:52.584Z,62.00
2022-08-05T02:36:01.182Z,61.94
2022-08-05T02:39:10.398Z,62.25
2022-08-05T02:42:25.886Z,61.79
2022-08-05T02:45:52.149Z,62.38
2022-08-05T02:48:58.507Z,62.17
2022-08-05T02:52:06.800Z,62.27
2022-08-05T02:55:15.062Z,62.02
2022-08-05T02:58:43.714Z,62.02
2022-08-05T03:01:52.704Z,62.56
2022-08-05T03:05:01.351Z,62.96
2022-08-05T03:08:08.959Z,63.76
2022-08-05T03:11:56.690Z,63.59
2022-08-05T03:14:52.569Z,63.96
2022-08-05T03:17:59.476Z,64.33
2022-08-05T03:21:06.212Z,64.78
2022-08-05T03:24:13.696Z,64.57
2022-08-05T03:27:22.426Z,64.21
2022-08-05T03:30:38.188Z,63.35
2022-08-05T03:33:52.768Z,63.08
2022-08-05T03:36:59.783Z,62.91
2022-08-05T03:40:09.031Z,62.73
2022-08-05T03:44:09.702Z,62.70
2022-08-05T03:46:45.437Z,63.20
2022-08-05T03:49:52.629Z,63.50
2022-08-05T03:55:53.047Z,64.75
2022-08-05T03:56:42.837Z,65.19
2022-08-05T03:59:57.219Z,65.61
2022-08-05T04:03:07.527Z,65.68
2022-08-05T04:06:22.190Z,65.46
2022-08-05T04:09:32.841Z,65.51
2022-08-05T04:15:52.721Z,65.42
2022-08-05T04:19:12.530Z,65.20
2022-08-05T04:22:20.405Z,64.66
2022-08-05T04:25:57.976Z,64.41
2022-08-05T04:28:54.156Z,65.92
2022-08-05T04:32:00.514Z,67.08
2022-08-05T04:35:17.391Z,66.84
2022-08-05T04:38:39.123Z,66.54
2022-08-05T04:41:46.375Z,66.00
2022-08-05T04:44:54.538Z,65.11
2022-08-05T04:48:10.274Z,65.04
2022-08-05T04:51:24.978Z,64.67
2022-08-05T04:54:31.172Z,64.38
2022-08-05T04:57:38.262Z,63.81
2022-08-05T05:00:45.217Z,63.32
2022-08-05T05:03:56.962Z,62.96
2022-08-05T05:07:03.095Z,62.41
2022-08-05T05:10:10.018Z,61.98
2022-08-05T05:13:17.807Z,61.62
2022-08-05T05:16:24.027Z,61.38
2022-08-05T05:22:56.763Z,60.57
2022-08-05T05:26:03.813Z,60.34
2022-08-05T05:29:14.407Z,59.85
2022-08-05T05:32:21.211Z,59.07
2022-08-05T05:35:27.415Z,59.65
2022-08-05T05:38:35.459Z,60.47
2022-08-05T05:41:41.939Z,61.60
2022-08-05T05:44:48.660Z,62.29
2022-08-05T05:48:07.047Z,61.71
2022-08-05T05:51:19.060Z,60.78
2022-08-05T05:54:50.341Z,59.93
2022-08-05T05:57:52.922Z,59.15
2022-08-05T06:01:04.940Z,59.27
2022-08-05T06:04:19.623Z,59.90
2022-08-05T06:07:41.328Z,60.32
2022-08-05T06:10:49.154Z,60.98
2022-08-05T06:14:00.371Z,60.69
2022-08-05T06:17:22.573Z,60.84
2022-08-05T06:20:30.898Z,61.08
2022-08-05T06:23:43.694Z,60.97
2022-08-05T06:26:51.971Z,60.94
2022-08-05T06:30:05.896Z,61.02
2022-08-05T06:33:33.295Z,61.26
2022-08-05T06:36:57.333Z,61.33
2022-08-05T06:40:02.894Z,61.24
2022-08-05T06:43:58.189Z,61.11
2022-08-05T06:46:35.251Z,61.13
2022-08-05T06:50:00.759Z,60.70
2022-08-05T06:53:19.659Z,60.41
2022-08-05T06:56:35.223Z,60.12
2022-08-05T06:59:42.198Z,59.83
2022-08-05T07:02:54.814Z,59.42
2022-08-05T07:06:05.704Z,58.86
2022-08-05T07:09:20.416Z,58.51
2022-08-05T07:12:49.144Z,58.08
2022-08-05T07:16:13.041Z,57.31
2022-08-05T07:23:06.553Z,56.97
2022-08-05T07:26:13.980Z,56.32
2022-08-05T07:29:20.331Z,56.23
2022-08-05T07:32:46.543Z,55.07
2022-08-05T07:36:04.064Z,54.48
2022-08-05T07:39:24.711Z,54.20
2022-08-05T07:42:38.315Z,53.56
2022-08-05T07:45:57.201Z,52.38
2022-08-05T07:49:07.952Z,51.90
2022-08-05T07:52:14.268Z,51.19
2022-08-05T07:55:57.202Z,51.08
2022-08-05T07:58:57.389Z,50.15
2022-08-05T08:02:07.339Z,49.83
2022-08-05T08:05:21.890Z,48.46
2022-08-05T08:08:28.085Z,49.30
2022-08-05T08:11:47.556Z,48.41
2022-08-05T08:15:02.726Z,47.53
2022-08-05T08:18:14.093Z,47.52
2022-08-05T08:21:20.732Z,47.00
2022-08-05T08:24:37.100Z,47.50
2022-08-05T08:27:52.887Z,46.66
2022-08-05T08:30:59.046Z,46.57
2022-08-05T08:34:07.805Z,46.55
2022-08-05T08:37:14.347Z,45.73
2022-08-05T08:40:26.330Z,45.61
2022-08-05T08:45:18.685Z,45.20
2022-08-05T08:47:01.315Z,45.14
2022-08-05T08:50:30.972Z,44.61
2022-08-05T08:53:45.198Z,43.05
2022-08-05T08:56:51.727Z,43.36
2022-08-05T08:59:59.615Z,43.48
2022-08-05T09:03:08.765Z,43.26
2022-08-05T09:06:20.033Z,42.55
2022-08-05T09:09:34.963Z,42.20
2022-08-05T09:12:40.945Z,40.26
2022-08-05T09:15:48.438Z,40.92
2022-08-05T09:18:55.517Z,41.80
2022-08-05T09:22:23.268Z,41.74
2022-08-05T09:26:01.097Z,41.01
2022-08-05T09:29:00.521Z,40.26
2022-08-05T09:32:45.846Z,39.75
2022-08-05T09:35:35.286Z,41.09
2022-08-05T09:38:59.270Z,41.53
2022-08-05T09:42:07.775Z,41.53
2022-08-05T09:46:04.914Z,39.25
2022-08-05T09:48:43.323Z,40.73
2022-08-05T09:52:22.907Z,41.16
2022-08-05T09:55:56.795Z,40.01
2022-08-05T09:59:06.711Z,40.06
2022-08-05T10:02:13.326Z,40.38
2022-08-05T10:05:21.906Z,41.26
2022-08-05T10:08:37.499Z,39.49
2022-08-05T10:11:45.027Z,39.44
2022-08-05T10:14:54.382Z,40.34
2022-08-05T10:18:12.231Z,38.29
2022-08-05T10:21:18.410Z,39.13
2022-08-05T10:24:29.883Z,38.42
2022-08-05T10:28:13.232Z,38.91
2022-08-05T10:32:50.848Z,38.79
2022-08-05T10:34:32.701Z,38.17
2022-08-05T10:37:44.623Z,37.92
2022-08-05T10:41:00.608Z,38.33
2022-08-05T10:44:12.977Z,37.19
2022-08-05T10:47:26.140Z,36.92
2022-08-05T10:50:37.164Z,36.52
2022-08-05T10:53:46.764Z,36.05
2022-08-05T10:56:56.139Z,35.47
2022-08-05T11:00:20.465Z,36.07
2022-08-05T11:03:27.482Z,35.20
2022-08-05T11:06:34.479Z,34.21
2022-08-05T11:09:47.313Z,34.55
2022-08-05T11:12:54.974Z,33.39
2022-08-05T11:16:33.844Z,32.10
2022-08-05T11:20:16.849Z,33.89
2022-08-05T11:24:04.208Z,34.09
2022-08-05T11:27:45.744Z,32.76
2022-08-05T11:31:58.330Z,32.24
2022-08-05T11:34:56.318Z,32.27
2022-08-05T11:38:37.243Z,34.26
2022-08-05T11:41:58.204Z,33.61
2022-08-05T11:45:06.030Z,34.08
2022-08-05T11:48:31.422Z,32.31
2022-08-05T11:51:43.690Z,33.22
2022-08-05T11:54:55.798Z,33.69
2022-08-05T11:58:09.717Z,33.22
2022-08-05T12:01:19.911Z,31.28
2022-08-05T12:04:27.016Z,30.44
2022-08-05T12:08:03.301Z,31.81
2022-08-05T12:11:08.010Z,33.67
2022-08-05T12:14:14.454Z,31.97
2022-08-05T12:18:00.815Z,31.19
2022-08-05T12:20:49.459Z,29.99
2022-08-05T12:24:05.011Z,30.82
2022-08-05T12:27:21.672Z,30.98
2022-08-05T12:30:45.956Z,30.72
2022-08-05T12:33:53.167Z,31.76
2022-08-05T12:37:01.576Z,32.52
2022-08-05T12:40:20.720Z,33.43
2022-08-05T12:43:33.345Z,34.64
2022-08-05T12:46:53.334Z,35.34
2022-08-05T12:50:02.431Z,33.41
2022-08-05T12:53:17.574Z,32.48
2022-08-05T12:56:34.401Z,32.60
2022-08-05T13:01:58.022Z,31.33
2022-08-05T13:03:16.549Z,32.90
2022-08-05T13:06:23.150Z,31.54
2022-08-05T13:09:30.518Z,31.97
2022-08-05T13:12:57.248Z,32.34
2022-08-05T13:16:04.789Z,31.83
2022-08-05T13:19:15.950Z,32.18
2022-08-05T13:22:28.465Z,33.38
2022-08-05T13:25:51.855Z,32.36
2022-08-05T13:29:03.018Z,32.07
2022-08-05T13:32:11.715Z,31.58
2022-08-05T13:35:42.734Z,33.13
2022-08-05T13:38:53.610Z,34.00
2022-08-05T13:42:00.603Z,35.12
2022-08-05T13:45:08.442Z,33.80
2022-08-05T13:48:58.419Z,33.83
2022-08-05T13:51:46.120Z,34.41
2022-08-05T13:54:53.675Z,33.33
2022-08-05T13:58:00.016Z,33.46
2022-08-05T14:01:07.066Z,34.24
2022-08-05T14:04:31.185Z,33.39
2022-08-05T14:08:00.537Z,33.41
2022-08-05T14:11:20.996Z,33.91
2022-08-05T14:14:33.647Z,34.73
2022-08-05T14:17:40.104Z,34.29
2022-08-05T14:20:47.136Z,34.68
2022-08-05T14:23:53.667Z,34.48
2022-08-05T14:27:17.259Z,33.38
2022-08-05T14:30:26.675Z,34.58
2022-08-05T14:34:00.341Z,34.27
2022-08-05T14:37:00.300Z,35.13
2022-08-05T14:40:08.038Z,35.54
2022-08-05T14:43:14.362Z,34.86
2022-08-05T14:46:20.784Z,34.86
2022-08-05T14:49:56.226Z,34.89
2022-08-05T14:52:57.734Z,34.65
2022-08-05T14:56:05.439Z,34.16
2022-08-05T14:59:11.634Z,35.05
2022-08-05T15:02:19.101Z,35.77
2022-08-05T15:05:29.945Z,35.96
2022-08-05T15:09:01.226Z,35.67
2022-08-05T15:12:17.028Z,36.10
2022-08-05T15:15:55.018Z,36.08
2022-08-05T15:18:52.770Z,36.20
2022-08-05T15:22:01.413Z,35.93
2022-08-05T15:25:12.001Z,36.43
2022-08-05T15:28:20.497Z,36.17
2022-08-05T15:31:34.762Z,37.13
2022-08-05T15:34:41.303Z,37.50
2022-08-05T15:38:34.853Z,37.05
2022-08-05T15:41:20.915Z,37.33
2022-08-05T15:44:30.968Z,37.24
2022-08-05T15:47:37.195Z,37.50
2022-08-05T15:50:47.471Z,37.40
2022-08-05T15:53:53.688Z,37.88
2022-08-05T15:56:59.808Z,38.20
2022-08-05T16:00:08.180Z,38.54
2022-08-05T16:03:14.404Z,38.30
2022-08-05T16:06:23.251Z,38.97
2022-08-05T16:09:29.791Z,39.70
2022-08-05T16:12:38.766Z,40.49
2022-08-05T16:15:45.399Z,41.01
2022-08-05T16:18:53.664Z,40.62
2022-08-05T16:22:03.459Z,40.44
2022-08-05T16:25:11.321Z,40.37
2022-08-05T16:28:18.144Z,40.85
2022-08-05T16:31:24.693Z,41.10
2022-08-05T16:34:31.667Z,42.15
2022-08-05T16:38:03.627Z,42.98
2022-08-05T16:42:12.554Z,43.34
2022-08-05T16:44:33.343Z,43.20
2022-08-05T16:47:48.267Z,43.22
2022-08-05T16:51:00.577Z,42.52
2022-08-05T16:54:10.573Z,43.34
2022-08-05T16:57:48.615Z,43.80
2022-08-05T17:00:51.157Z,46.00
2022-08-05T17:03:57.394Z,45.95
2022-08-05T17:07:11.508Z,46.11
2022-08-05T17:10:18.150Z,45.51
2022-08-05T17:13:37.428Z,47.02
2022-08-05T17:16:47.518Z,48.78
2022-08-05T17:19:59.497Z,51.26
2022-08-05T17:23:05.627Z,48.24
2022-08-05T17:26:11.837Z,49.21
2022-08-05T17:29:17.985Z,51.43
2022-08-05T17:32:29.343Z,50.62
2022-08-05T17:36:08.918Z,52.47
2022-08-05T17:39:03.193Z,52.27
2022-08-05T17:42:18.159Z,53.55
2022-08-05T17:45:29.721Z,54.96
2022-08-05T17:48:45.023Z,55.76
2022-08-05T17:51:54.074Z,55.51
2022-08-05T17:55:03.136Z,55.84
2022-08-05T17:58:12.422Z,56.10
2022-08-05T18:01:18.999Z,56.09
2022-08-05T18:04:27.224Z,56.98
2022-08-05T18:07:41.461Z,57.62
2022-08-05T18:10:48.892Z,57.66
2022-08-05T18:13:55.397Z,57.79
2022-08-05T18:17:01.598Z,58.04
2022-08-05T18:20:15.139Z,58.00
2022-08-05T18:23:22.220Z,58.01
2022-08-05T18:26:29.506Z,58.15
2022-08-05T18:29:40.668Z,58.86
2022-08-05T18:32:53.681Z,59.05
2022-08-05T18:36:11.922Z,59.15
2022-08-05T18:39:42.045Z,59.49
2022-08-05T18:42:47.923Z,60.13
2022-08-05T18:45:54.302Z,60.87
2022-08-05T18:49:30.696Z,61.36
2022-08-05T18:52:51.750Z,61.70
2022-08-05T18:55:57.998Z,61.75
2022-08-05T18:59:44.410Z,61.97
2022-08-05T19:02:36.701Z,63.48
2022-08-05T19:06:11.479Z,63.55
2022-08-05T19:09:10.758Z,62.36
2022-08-05T19:12:17.727Z,60.83
2022-08-05T19:15:57.334Z,60.52
2022-08-05T19:18:51.269Z,61.05
2022-08-05T19:21:57.846Z,61.45
2022-08-05T19:25:05.321Z,62.12
2022-08-05T19:28:11.891Z,63.53
2022-08-05T19:31:21.439Z,63.92
2022-08-05T19:34:30.018Z,62.90
2022-08-05T19:38:06.758Z,61.99
2022-08-05T19:41:02.782Z,60.48
2022-08-05T19:44:14.228Z,60.54
2022-08-05T19:47:21.253Z,61.02
2022-08-05T19:50:31.326Z,61.77
2022-08-05T19:54:05.303Z,63.38
2022-08-05T19:57:06.591Z,63.87
2022-08-05T20:00:16.311Z,62.98
2022-08-05T20:03:27.469Z,62.30
2022-08-05T20:06:46.790Z,61.74
2022-08-05T20:09:54.502Z,61.44
2022-08-05T20:13:02.928Z,60.46
2022-08-05T20:16:10.016Z,60.93
2022-08-05T20:19:17.020Z,62.05
2022-08-05T20:22:23.365Z,63.71
2022-08-05T20:25:33.829Z,64.25
2022-08-05T20:28:48.813Z,63.74
2022-08-05T20:31:58.362Z,63.42
2022-08-05T20:35:07.206Z,63.36
2022-08-05T20:38:22.581Z,62.94
2022-08-05T20:41:44.593Z,62.73
2022-08-05T20:44:51.435Z,62.42
2022-08-05T20:47:58.763Z,62.27
2022-08-05T20:51:08.366Z,62.03
2022-08-05T20:54:14.651Z,62.00
2022-08-05T20:57:42.202Z,61.67
2022-08-05T21:00:54.815Z,61.52
2022-08-05T21:04:05.441Z,61.54
2022-08-05T21:07:11.717Z,61.53
2022-08-05T21:10:18.563Z,61.87
2022-08-05T21:13:37.817Z,61.71
2022-08-05T21:16:51.314Z,61.46
2022-08-05T21:19:58.092Z,61.14
2022-08-05T21:23:04.970Z,61.01
2022-08-05T21:26:15.148Z,60.78
2022-08-05T21:29:23.604Z,60.76
2022-08-05T21:32:32.691Z,60.65
2022-08-05T21:35:43.576Z,60.69
2022-08-05T21:39:02.345Z,60.72
2022-08-05T21:42:30.599Z,60.55
2022-08-05T21:45:56.944Z,59.86
2022-08-05T21:49:01.815Z,60.57
2022-08-05T21:52:15.781Z,61.85
2022-08-05T21:56:01.005Z,64.02
2022-08-05T21:58:57.377Z,64.38
2022-08-05T22:02:04.239Z,63.75
2022-08-05T22:05:11.555Z,63.37
2022-08-05T22:08:22.471Z,63.36
2022-08-05T22:11:34.807Z,63.18
2022-08-05T22:14:41.841Z,62.93
2022-08-05T22:17:59.758Z,62.73
2022-08-05T22:21:18.628Z,62.58
2022-08-05T22:24:52.318Z,62.28
2022-08-05T22:28:10.181Z,62.23
2022-08-05T22:31:17.799Z,62.09
2022-08-05T22:34:28.534Z,62.06
2022-08-05T22:37:58.633Z,61.91
2022-08-05T22:41:09.398Z,62.12
2022-08-05T22:44:16.206Z,62.89
2022-08-05T22:47:30.418Z,63.00
2022-08-05T22:50:36.839Z,63.14
2022-08-05T22:53:55.044Z,63.20
2022-08-05T22:57:01.503Z,62.83
2022-08-05T23:00:12.585Z,62.57
2022-08-05T23:03:23.172Z,63.42
2022-08-05T23:06:49.399Z,62.85
2022-08-05T23:10:00.993Z,62.37
2022-08-05T23:13:08.190Z,62.33
2022-08-05T23:16:14.994Z,62.22
2022-08-05T23:19:46.657Z,62.18
2022-08-05T23:22:58.704Z,61.99
2022-08-05T23:26:05.119Z,61.93
2022-08-05T23:29:11.270Z,62.17
2022-08-05T23:32:22.796Z,62.43
2022-08-05T23:35:34.429Z,62.07
2022-08-05T23:38:40.848Z,62.01
2022-08-05T23:41:48.734Z,62.27
2022-08-05T23:44:55.166Z,62.28
2022-08-05T23:48:03.211Z,62.28
2022-08-05T23:51:10.934Z,62.49
2022-08-05T23:54:25.495Z,62.40
2022-08-05T23:57:32.668Z,62.39
